Cape Hatteras National Seash, North Carolina
Current Conditions -  °F | °C
As of 9:35 PM on Friday 28 Nov 2014 (Local Time) from KMQI Reporting Station
Clear Clear  
Wind Chill:   Ceiling: Unl
Heat Index:   Visibility: 10mi
Dew Point: -5°   Wind: 3mph
Humidity: 57%   Direction: 350°N
Pressure: 30.31"   Gusts: NA
Location:  35.8834°N, 75.6616°W
Report Text: KMQI 290235Z AUTO 35003KT 10SM CLR 03/M05 A3031 RMK AO2 T00291048
Loading
Personal Weather Stations






























Interactive Weather Map New forecast layout! Learn more

10-Day Weather Forecast

Advertisements
Track Severe Weather on mobile